sensor_id;sensor_type;location;lat;lon;timestamp;P1;durP1;ratioP1;P2;durP2;ratioP2
8365;SDS011;4220;42.502;24.188;2022-08-19T00:00:04;4.97;;;4.57;;
8365;SDS011;4220;42.502;24.188;2022-08-19T00:02:33;6.10;;;4.55;;
8365;SDS011;4220;42.502;24.188;2022-08-19T00:05:00;5.28;;;4.80;;
8365;SDS011;4220;42.502;24.188;2022-08-19T00:07:29;5.85;;;4.70;;
8365;SDS011;4220;42.502;24.188;2022-08-19T00:09:55;5.50;;;5.00;;
8365;SDS011;4220;42.502;24.188;2022-08-19T00:12:22;4.93;;;4.53;;
8365;SDS011;4220;42.502;24.188;2022-08-19T00:14:49;5.72;;;4.60;;
8365;SDS011;4220;42.502;24.188;2022-08-19T00:17:19;5.70;;;4.68;;
8365;SDS011;4220;42.502;24.188;2022-08-19T00:19:46;5.00;;;4.45;;
8365;SDS011;4220;42.502;24.188;2022-08-19T00:22:13;5.13;;;4.72;;
8365;SDS011;4220;42.502;24.188;2022-08-19T00:24:42;7.15;;;4.88;;
8365;SDS011;4220;42.502;24.188;2022-08-19T00:27:09;5.95;;;5.35;;
8365;SDS011;4220;42.502;24.188;2022-08-19T00:29:36;5.68;;;4.97;;
8365;SDS011;4220;42.502;24.188;2022-08-19T00:32:03;5.10;;;4.65;;
8365;SDS011;4220;42.502;24.188;2022-08-19T00:34:30;5.20;;;4.35;;
8365;SDS011;4220;42.502;24.188;2022-08-19T00:36:57;6.53;;;4.40;;
8365;SDS011;4220;42.502;24.188;2022-08-19T00:39:24;6.30;;;4.97;;
8365;SDS011;4220;42.502;24.188;2022-08-19T00:41:53;4.80;;;4.40;;
8365;SDS011;4220;42.502;24.188;2022-08-19T00:44:21;5.75;;;4.88;;
8365;SDS011;4220;42.502;24.188;2022-08-19T00:46:50;6.57;;;4.68;;
8365;SDS011;4220;42.502;24.188;2022-08-19T00:49:20;5.50;;;5.00;;
8365;SDS011;4220;42.502;24.188;2022-08-19T00:51:53;4.90;;;4.38;;
8365;SDS011;4220;42.502;24.188;2022-08-19T00:54:25;5.40;;;4.63;;
8365;SDS011;4220;42.502;24.188;2022-08-19T00:56:54;5.60;;;5.10;;
8365;SDS011;4220;42.502;24.188;2022-08-19T00:59:21;5.25;;;4.78;;
8365;SDS011;4220;42.502;24.188;2022-08-19T01:01:48;5.15;;;4.65;;
8365;SDS011;4220;42.502;24.188;2022-08-19T01:04:15;5.10;;;4.60;;
8365;SDS011;4220;42.502;24.188;2022-08-19T01:06:42;7.63;;;5.47;;
8365;SDS011;4220;42.502;24.188;2022-08-19T01:09:09;5.70;;;5.07;;
8365;SDS011;4220;42.502;24.188;2022-08-19T01:11:38;6.15;;;4.80;;
8365;SDS011;4220;42.502;24.188;2022-08-19T01:14:10;5.85;;;4.68;;
8365;SDS011;4220;42.502;24.188;2022-08-19T01:16:38;5.28;;;4.50;;
8365;SDS011;4220;42.502;24.188;2022-08-19T01:19:09;5.70;;;4.80;;
8365;SDS011;4220;42.502;24.188;2022-08-19T01:21:43;5.05;;;4.60;;
8365;SDS011;4220;42.502;24.188;2022-08-19T01:24:18;5.75;;;5.25;;
8365;SDS011;4220;42.502;24.188;2022-08-19T01:26:45;5.47;;;4.55;;
8365;SDS011;4220;42.502;24.188;2022-08-19T01:29:14;5.18;;;4.75;;
8365;SDS011;4220;42.502;24.188;2022-08-19T01:31:41;7.07;;;5.07;;
8365;SDS011;4220;42.502;24.188;2022-08-19T01:34:08;6.03;;;5.45;;
8365;SDS011;4220;42.502;24.188;2022-08-19T01:36:36;5.63;;;5.13;;
8365;SDS011;4220;42.502;24.188;2022-08-19T01:39:05;6.35;;;5.18;;
8365;SDS011;4220;42.502;24.188;2022-08-19T01:41:36;5.38;;;4.80;;
8365;SDS011;4220;42.502;24.188;2022-08-19T01:44:03;9.07;;;5.10;;
8365;SDS011;4220;42.502;24.188;2022-08-19T01:46:32;5.20;;;4.70;;
8365;SDS011;4220;42.502;24.188;2022-08-19T01:48:58;5.80;;;5.22;;
8365;SDS011;4220;42.502;24.188;2022-08-19T01:51:26;5.93;;;5.00;;
8365;SDS011;4220;42.502;24.188;2022-08-19T01:53:54;27.48;;;24.70;;
8365;SDS011;4220;42.502;24.188;2022-08-19T01:56:21;32.97;;;28.85;;
8365;SDS011;4220;42.502;24.188;2022-08-19T01:58:51;29.33;;;25.90;;
8365;SDS011;4220;42.502;24.188;2022-08-19T02:01:21;7.88;;;6.50;;
8365;SDS011;4220;42.502;24.188;2022-08-19T02:03:48;6.13;;;5.60;;
8365;SDS011;4220;42.502;24.188;2022-08-19T02:06:18;5.68;;;5.18;;
8365;SDS011;4220;42.502;24.188;2022-08-19T02:08:45;5.50;;;5.00;;
8365;SDS011;4220;42.502;24.188;2022-08-19T02:11:17;6.22;;;4.80;;
8365;SDS011;4220;42.502;24.188;2022-08-19T02:13:51;6.70;;;5.25;;
8365;SDS011;4220;42.502;24.188;2022-08-19T02:16:18;5.85;;;5.18;;
8365;SDS011;4220;42.502;24.188;2022-08-19T02:18:45;8.50;;;5.38;;
8365;SDS011;4220;42.502;24.188;2022-08-19T02:21:13;5.63;;;4.97;;
8365;SDS011;4220;42.502;24.188;2022-08-19T02:23:41;7.72;;;5.53;;
8365;SDS011;4220;42.502;24.188;2022-08-19T02:26:08;5.82;;;5.32;;
8365;SDS011;4220;42.502;24.188;2022-08-19T02:28:35;5.90;;;5.40;;
8365;SDS011;4220;42.502;24.188;2022-08-19T02:31:07;6.13;;;5.43;;
8365;SDS011;4220;42.502;24.188;2022-08-19T02:33:36;6.80;;;5.68;;
8365;SDS011;4220;42.502;24.188;2022-08-19T02:36:03;8.50;;;5.22;;
8365;SDS011;4220;42.502;24.188;2022-08-19T02:38:30;5.80;;;5.28;;
8365;SDS011;4220;42.502;24.188;2022-08-19T02:40:58;5.85;;;5.25;;
8365;SDS011;4220;42.502;24.188;2022-08-19T02:43:30;7.60;;;5.85;;
8365;SDS011;4220;42.502;24.188;2022-08-19T02:45:59;8.70;;;6.05;;
8365;SDS011;4220;42.502;24.188;2022-08-19T02:48:28;9.40;;;5.47;;
8365;SDS011;4220;42.502;24.188;2022-08-19T02:50:57;7.05;;;5.63;;
8365;SDS011;4220;42.502;24.188;2022-08-19T02:53:26;7.80;;;5.60;;
8365;SDS011;4220;42.502;24.188;2022-08-19T02:55:53;6.10;;;5.50;;
8365;SDS011;4220;42.502;24.188;2022-08-19T02:58:21;5.72;;;5.22;;
8365;SDS011;4220;42.502;24.188;2022-08-19T03:00:49;7.03;;;5.63;;
8365;SDS011;4220;42.502;24.188;2022-08-19T03:03:17;6.75;;;5.32;;
8365;SDS011;4220;42.502;24.188;2022-08-19T03:05:46;5.78;;;5.28;;
8365;SDS011;4220;42.502;24.188;2022-08-19T03:08:13;6.68;;;5.47;;
8365;SDS011;4220;42.502;24.188;2022-08-19T03:10:41;5.80;;;5.30;;
8365;SDS011;4220;42.502;24.188;2022-08-19T03:13:10;13.73;;;6.53;;
8365;SDS011;4220;42.502;24.188;2022-08-19T03:15:41;6.07;;;5.47;;
8365;SDS011;4220;42.502;24.188;2022-08-19T03:18:09;5.75;;;5.25;;
8365;SDS011;4220;42.502;24.188;2022-08-19T03:20:40;5.72;;;5.13;;
8365;SDS011;4220;42.502;24.188;2022-08-19T03:23:09;5.82;;;5.22;;
8365;SDS011;4220;42.502;24.188;2022-08-19T03:25:38;6.25;;;5.65;;
8365;SDS011;4220;42.502;24.188;2022-08-19T03:28:08;6.97;;;5.63;;
8365;SDS011;4220;42.502;24.188;2022-08-19T03:30:35;8.82;;;5.47;;
8365;SDS011;4220;42.502;24.188;2022-08-19T03:33:02;7.55;;;5.60;;
8365;SDS011;4220;42.502;24.188;2022-08-19T03:35:29;7.55;;;6.30;;
8365;SDS011;4220;42.502;24.188;2022-08-19T03:37:56;7.30;;;6.03;;
8365;SDS011;4220;42.502;24.188;2022-08-19T03:40:26;6.53;;;5.38;;
8365;SDS011;4220;42.502;24.188;2022-08-19T03:42:54;8.18;;;6.03;;
8365;SDS011;4220;42.502;24.188;2022-08-19T03:45:21;11.13;;;6.28;;
8365;SDS011;4220;42.502;24.188;2022-08-19T03:47:48;7.32;;;6.00;;
8365;SDS011;4220;42.502;24.188;2022-08-19T03:50:15;6.18;;;5.50;;
8365;SDS011;4220;42.502;24.188;2022-08-19T03:52:47;6.25;;;5.32;;
8365;SDS011;4220;42.502;24.188;2022-08-19T03:55:15;6.63;;;5.80;;
8365;SDS011;4220;42.502;24.188;2022-08-19T03:57:44;7.63;;;5.20;;
8365;SDS011;4220;42.502;24.188;2022-08-19T04:00:14;8.82;;;5.63;;
8365;SDS011;4220;42.502;24.188;2022-08-19T04:02:41;8.10;;;5.30;;
8365;SDS011;4220;42.502;24.188;2022-08-19T04:05:08;8.68;;;6.15;;
8365;SDS011;4220;42.502;24.188;2022-08-19T04:07:36;8.10;;;6.43;;
8365;SDS011;4220;42.502;24.188;2022-08-19T04:10:03;14.57;;;7.32;;
8365;SDS011;4220;42.502;24.188;2022-08-19T04:12:30;10.68;;;7.97;;
8365;SDS011;4220;42.502;24.188;2022-08-19T04:14:59;11.93;;;7.43;;
8365;SDS011;4220;42.502;24.188;2022-08-19T04:17:26;8.98;;;7.47;;
8365;SDS011;4220;42.502;24.188;2022-08-19T04:19:53;15.20;;;7.22;;
8365;SDS011;4220;42.502;24.188;2022-08-19T04:22:20;15.88;;;6.60;;
8365;SDS011;4220;42.502;24.188;2022-08-19T04:24:47;9.05;;;6.55;;
8365;SDS011;4220;42.502;24.188;2022-08-19T04:27:14;11.70;;;7.18;;
8365;SDS011;4220;42.502;24.188;2022-08-19T04:29:41;12.70;;;7.43;;
8365;SDS011;4220;42.502;24.188;2022-08-19T04:32:09;11.05;;;7.05;;
8365;SDS011;4220;42.502;24.188;2022-08-19T04:34:37;9.38;;;7.03;;
8365;SDS011;4220;42.502;24.188;2022-08-19T04:37:05;8.93;;;6.88;;
8365;SDS011;4220;42.502;24.188;2022-08-19T04:39:37;8.38;;;5.35;;
8365;SDS011;4220;42.502;24.188;2022-08-19T04:42:21;84.68;;;66.55;;
8365;SDS011;4220;42.502;24.188;2022-08-19T04:45:07;114.55;;;84.72;;
8365;SDS011;4220;42.502;24.188;2022-08-19T04:47:38;189.00;;;146.85;;
8365;SDS011;4220;42.502;24.188;2022-08-19T04:50:08;36.45;;;26.98;;
8365;SDS011;4220;42.502;24.188;2022-08-19T04:52:37;105.07;;;70.88;;
8365;SDS011;4220;42.502;24.188;2022-08-19T04:55:07;106.75;;;82.60;;
8365;SDS011;4220;42.502;24.188;2022-08-19T04:57:35;79.55;;;62.88;;
8365;SDS011;4220;42.502;24.188;2022-08-19T05:00:06;35.00;;;29.15;;
8365;SDS011;4220;42.502;24.188;2022-08-19T05:02:34;191.20;;;152.95;;
8365;SDS011;4220;42.502;24.188;2022-08-19T05:05:04;156.80;;;129.38;;
8365;SDS011;4220;42.502;24.188;2022-08-19T05:07:32;46.40;;;34.70;;
8365;SDS011;4220;42.502;24.188;2022-08-19T05:09:59;14.85;;;9.15;;
8365;SDS011;4220;42.502;24.188;2022-08-19T05:12:25;10.13;;;6.38;;
8365;SDS011;4220;42.502;24.188;2022-08-19T05:14:55;11.43;;;6.03;;
8365;SDS011;4220;42.502;24.188;2022-08-19T05:17:23;9.65;;;6.60;;
8365;SDS011;4220;42.502;24.188;2022-08-19T05:19:50;9.85;;;6.80;;
8365;SDS011;4220;42.502;24.188;2022-08-19T05:22:36;10.52;;;6.32;;
8365;SDS011;4220;42.502;24.188;2022-08-19T05:25:04;11.40;;;6.65;;
8365;SDS011;4220;42.502;24.188;2022-08-19T05:27:33;8.60;;;6.70;;
8365;SDS011;4220;42.502;24.188;2022-08-19T05:30:00;8.60;;;7.18;;
8365;SDS011;4220;42.502;24.188;2022-08-19T05:32:27;128.95;;;103.57;;
8365;SDS011;4220;42.502;24.188;2022-08-19T05:34:54;81.97;;;63.42;;
8365;SDS011;4220;42.502;24.188;2022-08-19T05:37:21;46.55;;;36.70;;
8365;SDS011;4220;42.502;24.188;2022-08-19T05:39:49;47.65;;;39.22;;
8365;SDS011;4220;42.502;24.188;2022-08-19T05:42:16;59.80;;;43.53;;
8365;SDS011;4220;42.502;24.188;2022-08-19T05:44:45;204.70;;;165.32;;
8365;SDS011;4220;42.502;24.188;2022-08-19T05:47:14;114.55;;;91.90;;
8365;SDS011;4220;42.502;24.188;2022-08-19T05:49:41;131.65;;;112.13;;
8365;SDS011;4220;42.502;24.188;2022-08-19T05:52:10;29.30;;;24.95;;
8365;SDS011;4220;42.502;24.188;2022-08-19T05:54:41;12.82;;;10.15;;
8365;SDS011;4220;42.502;24.188;2022-08-19T05:57:09;16.27;;;7.93;;
8365;SDS011;4220;42.502;24.188;2022-08-19T05:59:36;84.15;;;68.38;;
8365;SDS011;4220;42.502;24.188;2022-08-19T06:02:03;125.65;;;92.38;;
8365;SDS011;4220;42.502;24.188;2022-08-19T06:04:31;50.38;;;37.85;;
8365;SDS011;4220;42.502;24.188;2022-08-19T06:06:58;21.10;;;16.77;;
8365;SDS011;4220;42.502;24.188;2022-08-19T06:09:26;34.63;;;29.83;;
8365;SDS011;4220;42.502;24.188;2022-08-19T06:11:54;12.98;;;8.40;;
8365;SDS011;4220;42.502;24.188;2022-08-19T06:14:27;13.45;;;7.63;;
8365;SDS011;4220;42.502;24.188;2022-08-19T06:16:56;8.55;;;5.82;;
8365;SDS011;4220;42.502;24.188;2022-08-19T06:19:25;9.35;;;6.57;;
8365;SDS011;4220;42.502;24.188;2022-08-19T06:21:54;8.23;;;5.75;;
8365;SDS011;4220;42.502;24.188;2022-08-19T06:24:21;9.55;;;6.15;;
8365;SDS011;4220;42.502;24.188;2022-08-19T06:26:50;13.00;;;6.10;;
8365;SDS011;4220;42.502;24.188;2022-08-19T06:29:19;8.07;;;5.88;;
8365;SDS011;4220;42.502;24.188;2022-08-19T06:31:49;8.77;;;5.10;;
8365;SDS011;4220;42.502;24.188;2022-08-19T06:34:18;9.63;;;6.50;;
8365;SDS011;4220;42.502;24.188;2022-08-19T06:36:46;7.07;;;5.90;;
8365;SDS011;4220;42.502;24.188;2022-08-19T06:39:15;6.80;;;6.20;;
8365;SDS011;4220;42.502;24.188;2022-08-19T06:41:45;6.90;;;5.60;;
8365;SDS011;4220;42.502;24.188;2022-08-19T06:44:14;10.43;;;6.10;;
8365;SDS011;4220;42.502;24.188;2022-08-19T06:46:41;7.32;;;5.70;;
8365;SDS011;4220;42.502;24.188;2022-08-19T06:49:10;10.23;;;6.05;;
8365;SDS011;4220;42.502;24.188;2022-08-19T06:51:39;6.32;;;5.75;;
8365;SDS011;4220;42.502;24.188;2022-08-19T06:54:07;5.88;;;5.28;;
8365;SDS011;4220;42.502;24.188;2022-08-19T06:56:34;8.85;;;6.25;;
8365;SDS011;4220;42.502;24.188;2022-08-19T06:59:02;9.07;;;5.53;;
8365;SDS011;4220;42.502;24.188;2022-08-19T07:01:33;7.22;;;5.40;;
8365;SDS011;4220;42.502;24.188;2022-08-19T07:04:02;6.13;;;5.15;;
8365;SDS011;4220;42.502;24.188;2022-08-19T07:06:31;8.10;;;5.75;;
8365;SDS011;4220;42.502;24.188;2022-08-19T07:08:58;8.10;;;5.45;;
8365;SDS011;4220;42.502;24.188;2022-08-19T07:11:25;6.10;;;4.85;;
8365;SDS011;4220;42.502;24.188;2022-08-19T07:13:53;5.22;;;4.70;;
8365;SDS011;4220;42.502;24.188;2022-08-19T07:16:20;5.53;;;4.82;;
8365;SDS011;4220;42.502;24.188;2022-08-19T07:18:48;7.55;;;5.07;;
8365;SDS011;4220;42.502;24.188;2022-08-19T07:21:17;9.15;;;5.22;;
8365;SDS011;4220;42.502;24.188;2022-08-19T07:23:47;6.22;;;5.45;;
8365;SDS011;4220;42.502;24.188;2022-08-19T07:26:16;6.43;;;4.80;;
8365;SDS011;4220;42.502;24.188;2022-08-19T07:28:45;9.85;;;5.00;;
8365;SDS011;4220;42.502;24.188;2022-08-19T07:31:13;6.32;;;5.30;;
8365;SDS011;4220;42.502;24.188;2022-08-19T07:33:43;7.90;;;5.00;;
8365;SDS011;4220;42.502;24.188;2022-08-19T07:36:11;10.52;;;4.68;;
8365;SDS011;4220;42.502;24.188;2022-08-19T07:38:40;8.57;;;5.28;;
8365;SDS011;4220;42.502;24.188;2022-08-19T07:41:10;6.80;;;5.00;;
8365;SDS011;4220;42.502;24.188;2022-08-19T07:43:38;5.72;;;5.20;;
8365;SDS011;4220;42.502;24.188;2022-08-19T07:46:06;6.40;;;5.13;;
8365;SDS011;4220;42.502;24.188;2022-08-19T07:48:34;5.40;;;4.85;;
8365;SDS011;4220;42.502;24.188;2022-08-19T07:51:04;8.52;;;5.25;;
8365;SDS011;4220;42.502;24.188;2022-08-19T07:53:35;6.07;;;5.32;;
8365;SDS011;4220;42.502;24.188;2022-08-19T07:56:04;6.15;;;4.70;;
8365;SDS011;4220;42.502;24.188;2022-08-19T07:58:34;5.80;;;5.20;;
8365;SDS011;4220;42.502;24.188;2022-08-19T08:01:06;8.10;;;5.30;;
8365;SDS011;4220;42.502;24.188;2022-08-19T08:03:35;6.28;;;4.97;;
8365;SDS011;4220;42.502;24.188;2022-08-19T08:06:20;8.45;;;5.45;;
8365;SDS011;4220;42.502;24.188;2022-08-19T08:09:04;5.47;;;4.95;;
8365;SDS011;4220;42.502;24.188;2022-08-19T08:11:41;5.35;;;4.85;;
8365;SDS011;4220;42.502;24.188;2022-08-19T08:14:16;5.68;;;5.13;;
8365;SDS011;4220;42.502;24.188;2022-08-19T08:16:44;6.10;;;5.50;;
8365;SDS011;4220;42.502;24.188;2022-08-19T08:19:11;14.10;;;5.82;;
8365;SDS011;4220;42.502;24.188;2022-08-19T08:21:40;9.68;;;5.47;;
8365;SDS011;4220;42.502;24.188;2022-08-19T08:24:08;5.38;;;4.72;;
8365;SDS011;4220;42.502;24.188;2022-08-19T08:26:35;6.97;;;5.30;;
8365;SDS011;4220;42.502;24.188;2022-08-19T08:29:02;7.00;;;5.30;;
8365;SDS011;4220;42.502;24.188;2022-08-19T08:31:31;6.35;;;4.88;;
8365;SDS011;4220;42.502;24.188;2022-08-19T08:33:59;7.82;;;5.38;;
8365;SDS011;4220;42.502;24.188;2022-08-19T08:36:26;5.60;;;4.45;;
8365;SDS011;4220;42.502;24.188;2022-08-19T08:38:53;7.72;;;5.22;;
8365;SDS011;4220;42.502;24.188;2022-08-19T08:41:22;5.53;;;5.03;;
8365;SDS011;4220;42.502;24.188;2022-08-19T08:43:54;7.93;;;4.60;;
8365;SDS011;4220;42.502;24.188;2022-08-19T08:46:24;6.85;;;4.85;;
8365;SDS011;4220;42.502;24.188;2022-08-19T08:48:57;7.30;;;5.30;;
8365;SDS011;4220;42.502;24.188;2022-08-19T08:51:33;7.95;;;4.72;;
8365;SDS011;4220;42.502;24.188;2022-08-19T08:54:02;6.70;;;4.72;;
8365;SDS011;4220;42.502;24.188;2022-08-19T08:56:32;5.75;;;4.70;;
8365;SDS011;4220;42.502;24.188;2022-08-19T08:59:01;6.75;;;5.38;;
8365;SDS011;4220;42.502;24.188;2022-08-19T09:01:32;7.22;;;4.40;;
8365;SDS011;4220;42.502;24.188;2022-08-19T09:04:00;9.63;;;4.85;;
8365;SDS011;4220;42.502;24.188;2022-08-19T09:06:32;8.57;;;4.45;;
8365;SDS011;4220;42.502;24.188;2022-08-19T09:09:09;7.45;;;4.97;;
8365;SDS011;4220;42.502;24.188;2022-08-19T09:11:44;6.53;;;4.80;;
8365;SDS011;4220;42.502;24.188;2022-08-19T09:14:27;6.10;;;5.18;;
8365;SDS011;4220;42.502;24.188;2022-08-19T09:17:00;5.40;;;4.88;;
8365;SDS011;4220;42.502;24.188;2022-08-19T09:19:29;5.00;;;4.53;;
8365;SDS011;4220;42.502;24.188;2022-08-19T09:21:57;5.88;;;4.25;;
8365;SDS011;4220;42.502;24.188;2022-08-19T09:24:25;5.60;;;4.30;;
8365;SDS011;4220;42.502;24.188;2022-08-19T09:26:52;4.65;;;4.10;;
8365;SDS011;4220;42.502;24.188;2022-08-19T09:29:20;5.47;;;4.35;;
8365;SDS011;4220;42.502;24.188;2022-08-19T09:31:47;4.68;;;3.95;;
8365;SDS011;4220;42.502;24.188;2022-08-19T09:34:14;8.55;;;5.53;;
8365;SDS011;4220;42.502;24.188;2022-08-19T09:36:42;4.38;;;3.90;;
8365;SDS011;4220;42.502;24.188;2022-08-19T09:39:09;7.53;;;4.45;;
8365;SDS011;4220;42.502;24.188;2022-08-19T09:41:36;4.55;;;4.03;;
8365;SDS011;4220;42.502;24.188;2022-08-19T09:44:03;6.05;;;4.68;;
8365;SDS011;4220;42.502;24.188;2022-08-19T09:46:30;4.30;;;3.47;;
8365;SDS011;4220;42.502;24.188;2022-08-19T09:48:57;4.55;;;4.15;;
8365;SDS011;4220;42.502;24.188;2022-08-19T09:51:26;4.60;;;4.10;;
8365;SDS011;4220;42.502;24.188;2022-08-19T09:53:58;4.40;;;4.05;;
8365;SDS011;4220;42.502;24.188;2022-08-19T09:56:27;5.95;;;4.13;;
8365;SDS011;4220;42.502;24.188;2022-08-19T09:58:55;4.85;;;4.10;;
8365;SDS011;4220;42.502;24.188;2022-08-19T10:01:24;4.35;;;3.95;;
8365;SDS011;4220;42.502;24.188;2022-08-19T10:03:54;4.35;;;3.95;;
8365;SDS011;4220;42.502;24.188;2022-08-19T10:06:23;5.35;;;4.20;;
8365;SDS011;4220;42.502;24.188;2022-08-19T10:08:55;4.90;;;3.70;;
8365;SDS011;4220;42.502;24.188;2022-08-19T10:11:22;4.40;;;3.60;;
8365;SDS011;4220;42.502;24.188;2022-08-19T10:13:49;4.40;;;4.00;;
8365;SDS011;4220;42.502;24.188;2022-08-19T10:16:17;11.25;;;4.18;;
8365;SDS011;4220;42.502;24.188;2022-08-19T10:18:47;4.13;;;3.72;;
8365;SDS011;4220;42.502;24.188;2022-08-19T10:21:16;4.10;;;3.67;;
8365;SDS011;4220;42.502;24.188;2022-08-19T10:23:47;4.57;;;4.10;;
8365;SDS011;4220;42.502;24.188;2022-08-19T10:26:18;4.40;;;4.00;;
8365;SDS011;4220;42.502;24.188;2022-08-19T10:28:47;4.40;;;4.00;;
8365;SDS011;4220;42.502;24.188;2022-08-19T10:31:15;7.18;;;4.13;;
8365;SDS011;4220;42.502;24.188;2022-08-19T10:33:45;5.07;;;4.25;;
8365;SDS011;4220;42.502;24.188;2022-08-19T10:36:13;6.90;;;3.83;;
8365;SDS011;4220;42.502;24.188;2022-08-19T10:38:42;4.22;;;3.92;;
8365;SDS011;4220;42.502;24.188;2022-08-19T10:41:11;8.45;;;4.32;;
8365;SDS011;4220;42.502;24.188;2022-08-19T10:43:42;5.07;;;3.65;;
8365;SDS011;4220;42.502;24.188;2022-08-19T10:46:11;4.20;;;3.80;;
8365;SDS011;4220;42.502;24.188;2022-08-19T10:48:41;6.63;;;3.72;;
8365;SDS011;4220;42.502;24.188;2022-08-19T10:51:08;5.70;;;3.90;;
8365;SDS011;4220;42.502;24.188;2022-08-19T10:53:53;6.18;;;3.97;;
8365;SDS011;4220;42.502;24.188;2022-08-19T10:56:20;4.65;;;3.88;;
8365;SDS011;4220;42.502;24.188;2022-08-19T10:59:06;4.97;;;3.97;;
8365;SDS011;4220;42.502;24.188;2022-08-19T11:01:34;6.85;;;4.38;;
8365;SDS011;4220;42.502;24.188;2022-08-19T11:04:01;5.85;;;4.30;;
8365;SDS011;4220;42.502;24.188;2022-08-19T11:06:33;6.15;;;4.28;;
8365;SDS011;4220;42.502;24.188;2022-08-19T11:09:00;5.63;;;3.88;;
8365;SDS011;4220;42.502;24.188;2022-08-19T11:11:27;4.75;;;4.30;;
8365;SDS011;4220;42.502;24.188;2022-08-19T11:13:54;5.95;;;4.22;;
8365;SDS011;4220;42.502;24.188;2022-08-19T11:16:23;5.32;;;4.18;;
8365;SDS011;4220;42.502;24.188;2022-08-19T11:18:52;6.40;;;3.90;;
8365;SDS011;4220;42.502;24.188;2022-08-19T11:21:21;4.20;;;3.80;;
8365;SDS011;4220;42.502;24.188;2022-08-19T11:23:50;4.68;;;4.00;;
8365;SDS011;4220;42.502;24.188;2022-08-19T11:26:19;5.20;;;3.63;;
8365;SDS011;4220;42.502;24.188;2022-08-19T11:28:47;4.45;;;4.05;;
8365;SDS011;4220;42.502;24.188;2022-08-19T11:31:17;7.20;;;4.38;;
8365;SDS011;4220;42.502;24.188;2022-08-19T11:33:47;5.63;;;4.07;;
8365;SDS011;4220;42.502;24.188;2022-08-19T11:36:16;6.03;;;3.63;;
8365;SDS011;4220;42.502;24.188;2022-08-19T11:38:43;4.70;;;3.60;;
8365;SDS011;4220;42.502;24.188;2022-08-19T11:41:13;7.10;;;3.83;;
8365;SDS011;4220;42.502;24.188;2022-08-19T11:43:42;5.53;;;3.78;;
8365;SDS011;4220;42.502;24.188;2022-08-19T11:46:10;5.78;;;3.65;;
8365;SDS011;4220;42.502;24.188;2022-08-19T11:48:39;4.82;;;4.15;;
8365;SDS011;4220;42.502;24.188;2022-08-19T11:51:11;4.60;;;4.20;;
8365;SDS011;4220;42.502;24.188;2022-08-19T11:53:49;5.35;;;3.95;;
8365;SDS011;4220;42.502;24.188;2022-08-19T11:56:26;6.05;;;4.47;;
8365;SDS011;4220;42.502;24.188;2022-08-19T11:58:54;4.22;;;3.78;;
8365;SDS011;4220;42.502;24.188;2022-08-19T12:01:23;4.57;;;3.67;;
8365;SDS011;4220;42.502;24.188;2022-08-19T12:03:52;5.18;;;4.03;;
8365;SDS011;4220;42.502;24.188;2022-08-19T12:06:22;5.25;;;3.92;;
8365;SDS011;4220;42.502;24.188;2022-08-19T12:08:53;5.65;;;4.32;;
8365;SDS011;4220;42.502;24.188;2022-08-19T12:11:21;4.38;;;3.97;;
8365;SDS011;4220;42.502;24.188;2022-08-19T12:13:48;5.25;;;3.75;;
8365;SDS011;4220;42.502;24.188;2022-08-19T12:16:20;4.95;;;3.60;;
8365;SDS011;4220;42.502;24.188;2022-08-19T12:18:49;5.55;;;3.90;;
8365;SDS011;4220;42.502;24.188;2022-08-19T12:21:18;4.18;;;3.38;;
8365;SDS011;4220;42.502;24.188;2022-08-19T12:23:49;4.43;;;3.50;;
8365;SDS011;4220;42.502;24.188;2022-08-19T12:26:16;4.68;;;3.67;;
8365;SDS011;4220;42.502;24.188;2022-08-19T12:28:44;3.97;;;3.60;;
8365;SDS011;4220;42.502;24.188;2022-08-19T12:31:11;5.68;;;3.67;;
8365;SDS011;4220;42.502;24.188;2022-08-19T12:33:38;4.10;;;3.58;;
8365;SDS011;4220;42.502;24.188;2022-08-19T12:36:08;5.45;;;3.67;;
8365;SDS011;4220;42.502;24.188;2022-08-19T12:38:37;4.50;;;4.10;;
8365;SDS011;4220;42.502;24.188;2022-08-19T12:41:07;5.22;;;3.92;;
8365;SDS011;4220;42.502;24.188;2022-08-19T12:43:36;5.63;;;4.03;;
8365;SDS011;4220;42.502;24.188;2022-08-19T12:46:03;5.30;;;3.88;;
8365;SDS011;4220;42.502;24.188;2022-08-19T12:48:33;6.30;;;4.03;;
8365;SDS011;4220;42.502;24.188;2022-08-19T12:51:00;7.70;;;3.60;;
8365;SDS011;4220;42.502;24.188;2022-08-19T12:53:32;7.45;;;3.58;;
8365;SDS011;4220;42.502;24.188;2022-08-19T12:56:00;4.20;;;3.80;;
8365;SDS011;4220;42.502;24.188;2022-08-19T12:58:29;5.82;;;4.10;;
8365;SDS011;4220;42.502;24.188;2022-08-19T13:00:59;4.35;;;3.90;;
8365;SDS011;4220;42.502;24.188;2022-08-19T13:03:26;5.22;;;3.67;;
8365;SDS011;4220;42.502;24.188;2022-08-19T13:05:54;5.63;;;3.80;;
8365;SDS011;4220;42.502;24.188;2022-08-19T13:08:21;4.15;;;3.75;;
8365;SDS011;4220;42.502;24.188;2022-08-19T13:10:48;5.10;;;3.80;;
8365;SDS011;4220;42.502;24.188;2022-08-19T13:13:16;12.38;;;3.88;;
8365;SDS011;4220;42.502;24.188;2022-08-19T13:15:44;4.63;;;3.80;;
8365;SDS011;4220;42.502;24.188;2022-08-19T13:18:12;4.07;;;3.65;;
8365;SDS011;4220;42.502;24.188;2022-08-19T13:20:40;5.82;;;3.90;;
8365;SDS011;4220;42.502;24.188;2022-08-19T13:23:08;4.10;;;3.78;;
8365;SDS011;4220;42.502;24.188;2022-08-19T13:25:35;4.80;;;4.28;;
8365;SDS011;4220;42.502;24.188;2022-08-19T13:28:02;4.43;;;3.50;;
8365;SDS011;4220;42.502;24.188;2022-08-19T13:30:31;4.43;;;3.95;;
8365;SDS011;4220;42.502;24.188;2022-08-19T13:33:17;7.05;;;4.28;;
8365;SDS011;4220;42.502;24.188;2022-08-19T13:35:46;5.30;;;4.03;;
8365;SDS011;4220;42.502;24.188;2022-08-19T13:38:15;6.80;;;4.20;;
8365;SDS011;4220;42.502;24.188;2022-08-19T13:40:43;5.30;;;4.07;;
8365;SDS011;4220;42.502;24.188;2022-08-19T13:43:11;5.15;;;4.00;;
8365;SDS011;4220;42.502;24.188;2022-08-19T13:45:38;4.97;;;3.85;;
8365;SDS011;4220;42.502;24.188;2022-08-19T13:48:06;4.47;;;3.92;;
8365;SDS011;4220;42.502;24.188;2022-08-19T13:50:38;3.88;;;3.58;;
8365;SDS011;4220;42.502;24.188;2022-08-19T13:53:06;9.23;;;4.25;;
8365;SDS011;4220;42.502;24.188;2022-08-19T13:55:34;8.13;;;4.18;;
8365;SDS011;4220;42.502;24.188;2022-08-19T13:58:01;5.18;;;3.95;;
8365;SDS011;4220;42.502;24.188;2022-08-19T14:00:29;8.38;;;4.43;;
8365;SDS011;4220;42.502;24.188;2022-08-19T14:02:58;5.00;;;3.90;;
8365;SDS011;4220;42.502;24.188;2022-08-19T14:05:26;4.55;;;4.10;;
8365;SDS011;4220;42.502;24.188;2022-08-19T14:07:55;6.13;;;4.30;;
8365;SDS011;4220;42.502;24.188;2022-08-19T14:10:22;7.20;;;3.95;;
8365;SDS011;4220;42.502;24.188;2022-08-19T14:12:51;5.55;;;4.00;;
8365;SDS011;4220;42.502;24.188;2022-08-19T14:15:20;4.60;;;4.22;;
8365;SDS011;4220;42.502;24.188;2022-08-19T14:17:49;5.22;;;4.70;;
8365;SDS011;4220;42.502;24.188;2022-08-19T14:20:16;4.93;;;4.43;;
8365;SDS011;4220;42.502;24.188;2022-08-19T14:22:44;6.00;;;5.47;;
8365;SDS011;4220;42.502;24.188;2022-08-19T14:25:16;4.70;;;4.30;;
8365;SDS011;4220;42.502;24.188;2022-08-19T14:27:45;5.05;;;4.05;;
8365;SDS011;4220;42.502;24.188;2022-08-19T14:30:13;5.68;;;4.57;;
8365;SDS011;4220;42.502;24.188;2022-08-19T14:32:41;4.63;;;4.22;;
8365;SDS011;4220;42.502;24.188;2022-08-19T14:35:10;8.30;;;4.88;;
8365;SDS011;4220;42.502;24.188;2022-08-19T14:37:41;5.15;;;4.13;;
8365;SDS011;4220;42.502;24.188;2022-08-19T14:40:11;6.40;;;4.70;;
8365;SDS011;4220;42.502;24.188;2022-08-19T14:42:40;5.53;;;4.45;;
8365;SDS011;4220;42.502;24.188;2022-08-19T14:45:07;5.22;;;4.82;;
8365;SDS011;4220;42.502;24.188;2022-08-19T14:47:35;6.03;;;4.30;;
8365;SDS011;4220;42.502;24.188;2022-08-19T14:50:04;4.72;;;4.32;;
8365;SDS011;4220;42.502;24.188;2022-08-19T14:52:32;7.25;;;4.18;;
8365;SDS011;4220;42.502;24.188;2022-08-19T14:54:59;6.55;;;4.07;;
8365;SDS011;4220;42.502;24.188;2022-08-19T14:57:25;5.30;;;4.72;;
8365;SDS011;4220;42.502;24.188;2022-08-19T14:59:54;4.78;;;4.32;;
8365;SDS011;4220;42.502;24.188;2022-08-19T15:02:22;9.15;;;4.47;;
8365;SDS011;4220;42.502;24.188;2022-08-19T15:04:49;6.82;;;5.97;;
8365;SDS011;4220;42.502;24.188;2022-08-19T15:07:17;16.35;;;14.82;;